createdAt,value
2023-01-08T00:10:46.002Z,-5.99
2023-01-08T00:15:50.780Z,-5.98
2023-01-08T00:20:56.437Z,-5.95
2023-01-08T00:26:05.584Z,-5.85
2023-01-08T00:31:13.075Z,-5.77
2023-01-08T00:36:28.237Z,-5.68
2023-01-08T00:41:36.116Z,-5.48
2023-01-08T00:46:42.983Z,-5.28
2023-01-08T00:51:49.106Z,-5.13
2023-01-08T00:56:53.702Z,-4.99
2023-01-08T01:01:59.386Z,-4.79
2023-01-08T01:07:04.348Z,-4.57
2023-01-08T01:12:09.208Z,-4.37
2023-01-08T01:17:16.127Z,-4.19
2023-01-08T01:22:20.691Z,-3.96
2023-01-08T01:27:26.901Z,-3.73
2023-01-08T01:32:32.607Z,-3.47
2023-01-08T01:37:37.395Z,-3.22
2023-01-08T01:42:42.122Z,-2.97
2023-01-08T01:47:57.507Z,-2.73
2023-01-08T01:53:24.981Z,-2.42
2023-01-08T01:58:33.276Z,-2.17
2023-01-08T02:03:42.730Z,-1.93
2023-01-08T02:09:14.253Z,-1.63
2023-01-08T02:14:20.077Z,-1.34
2023-01-08T02:19:54.717Z,-1.12
2023-01-08T02:25:23.899Z,-0.84
2023-01-08T02:30:30.528Z,-0.59
2023-01-08T02:35:46.955Z,-0.30
2023-01-08T02:41:10.856Z,-0.05
2023-01-08T02:46:24.224Z,0.22
2023-01-08T02:51:48.493Z,0.48
2023-01-08T02:57:02.977Z,0.69
2023-01-08T03:02:09.363Z,0.92
2023-01-08T03:07:14.881Z,1.19
2023-01-08T03:12:29.605Z,1.42
2023-01-08T03:18:00.266Z,1.66
2023-01-08T03:23:10.071Z,1.82
2023-01-08T03:28:25.472Z,1.97
2023-01-08T03:33:33.617Z,2.12
2023-01-08T03:38:51.917Z,2.23
2023-01-08T03:43:57.820Z,2.38
2023-01-08T03:49:04.327Z,2.48
2023-01-08T03:54:14.731Z,2.61
2023-01-08T03:59:21.168Z,2.76
2023-01-08T04:04:26.294Z,2.93
2023-01-08T04:09:31.167Z,3.07
2023-01-08T04:14:37.360Z,3.27
2023-01-08T04:19:43.742Z,3.49
2023-01-08T04:24:49.198Z,3.73
2023-01-08T04:29:54.020Z,3.91
2023-01-08T04:34:59.267Z,4.05
2023-01-08T04:40:04.494Z,4.14
2023-01-08T04:45:10.264Z,4.28
2023-01-08T04:50:15.572Z,4.42
2023-01-08T04:55:21.030Z,4.57
2023-01-08T05:00:25.652Z,4.73
2023-01-08T05:05:31.452Z,4.86
2023-01-08T05:10:39.360Z,4.96
2023-01-08T05:15:46.145Z,5.08
2023-01-08T05:20:53.971Z,5.15
2023-01-08T05:26:05.054Z,5.25
2023-01-08T05:31:13.524Z,5.32
2023-01-08T05:36:19.626Z,5.40
2023-01-08T05:41:25.221Z,5.49
2023-01-08T05:46:31.484Z,5.56
2023-01-08T05:51:36.614Z,5.62
2023-01-08T05:56:46.173Z,5.69
2023-01-08T06:01:52.578Z,5.73
2023-01-08T06:06:57.893Z,5.80
2023-01-08T06:12:04.441Z,5.88
2023-01-08T06:17:10.306Z,5.90
2023-01-08T06:22:16.256Z,5.92
2023-01-08T06:27:21.148Z,5.99
2023-01-08T06:32:25.928Z,6.02
2023-01-08T06:37:30.648Z,6.06
2023-01-08T06:42:36.685Z,6.04
2023-01-08T06:47:41.548Z,6.10
2023-01-08T06:52:46.262Z,6.09
2023-01-08T06:57:54.990Z,6.09
2023-01-08T07:02:59.975Z,6.07
2023-01-08T07:08:05.515Z,6.07
2023-01-08T07:13:10.777Z,6.06
2023-01-08T07:18:15.587Z,6.02
2023-01-08T07:23:20.469Z,5.95
2023-01-08T07:28:25.294Z,5.91
2023-01-08T07:33:30.221Z,5.84
2023-01-08T07:38:35.169Z,5.75
2023-01-08T07:43:39.996Z,5.67
2023-01-08T07:48:44.869Z,5.59
2023-01-08T07:53:52.669Z,5.54
2023-01-08T07:58:57.991Z,5.48
2023-01-08T08:04:02.777Z,5.42
2023-01-08T08:09:07.515Z,5.35
2023-01-08T08:14:12.209Z,5.30
2023-01-08T08:19:17.445Z,5.21
2023-01-08T08:24:22.212Z,5.11
2023-01-08T08:29:27.040Z,5.05
2023-01-08T08:34:31.936Z,4.98
2023-01-08T08:39:36.792Z,4.90
2023-01-08T08:44:42.991Z,4.82
2023-01-08T08:49:48.651Z,4.80
2023-01-08T08:54:53.441Z,4.64
2023-01-08T08:59:59.789Z,4.49
2023-01-08T09:05:06.076Z,4.30
2023-01-08T09:10:11.188Z,4.13
2023-01-08T09:15:16.062Z,3.98
2023-01-08T09:20:21.112Z,3.83
2023-01-08T09:25:25.936Z,3.69
2023-01-08T09:30:31.606Z,3.56
2023-01-08T09:35:36.706Z,3.42
2023-01-08T09:41:07.967Z,3.30
2023-01-08T09:46:14.837Z,3.20
2023-01-08T09:51:21.791Z,3.15
2023-01-08T09:56:26.982Z,3.08
2023-01-08T10:01:36.737Z,3.03
2023-01-08T10:06:43.513Z,3.02
2023-01-08T10:11:51.557Z,3.02
2023-01-08T10:17:34.268Z,3.01
2023-01-08T10:22:39.065Z,3.07
2023-01-08T10:27:55.927Z,3.16
2023-01-08T10:33:06.946Z,3.18
2023-01-08T10:38:50.117Z,3.18
2023-01-08T10:44:03.972Z,3.15
2023-01-08T10:49:16.185Z,3.10
2023-01-08T10:54:41.284Z,3.00
2023-01-08T10:59:47.500Z,2.93
2023-01-08T11:04:54.790Z,2.84
2023-01-08T11:09:59.941Z,2.75
2023-01-08T11:15:32.207Z,2.62
2023-01-08T11:20:38.557Z,2.51
2023-01-08T11:25:47.329Z,2.43
2023-01-08T11:31:01.711Z,2.33
2023-01-08T11:36:37.968Z,2.26
2023-01-08T11:42:05.321Z,2.10
2023-01-08T11:47:21.883Z,1.98
2023-01-08T11:52:46.779Z,1.97
2023-01-08T11:58:10.092Z,1.98
2023-01-08T12:03:31.967Z,1.91
2023-01-08T12:09:15.977Z,1.67
2023-01-08T12:14:39.313Z,1.46
2023-01-08T12:20:02.249Z,1.16
2023-01-08T12:25:44.375Z,0.82
2023-01-08T12:31:13.917Z,0.58
2023-01-08T12:36:27.136Z,0.40
2023-01-08T12:41:35.971Z,0.33
2023-01-08T12:46:50.279Z,0.22
2023-01-08T12:52:13.991Z,0.14
2023-01-08T12:57:23.582Z,0.07
2023-01-08T13:02:53.759Z,0.01
2023-01-08T13:08:06.674Z,-0.05
2023-01-08T13:13:35.535Z,-0.09
2023-01-08T13:18:41.911Z,-0.13
2023-01-08T13:23:46.798Z,-0.18
2023-01-08T13:28:52.485Z,-0.20
2023-01-08T13:33:58.052Z,-0.21
2023-01-08T13:39:07.993Z,-0.22
2023-01-08T13:44:33.325Z,-0.21
2023-01-08T13:49:45.383Z,-0.22
2023-01-08T13:54:50.993Z,-0.23
2023-01-08T14:00:00.046Z,-0.24
2023-01-08T14:05:14.311Z,-0.15
2023-01-08T14:10:20.628Z,-0.03
2023-01-08T14:15:31.871Z,0.05
2023-01-08T14:20:42.455Z,0.10
2023-01-08T14:25:52.474Z,0.18
2023-01-08T14:30:59.620Z,0.15
2023-01-08T14:36:08.527Z,0.03
2023-01-08T14:41:16.476Z,-0.08
2023-01-08T14:46:34.305Z,-0.19
2023-01-08T14:51:44.355Z,-0.23
2023-01-08T14:56:56.186Z,-0.30
2023-01-08T15:02:04.709Z,-0.41
2023-01-08T15:07:22.909Z,-0.40
2023-01-08T15:12:32.141Z,-0.35
2023-01-08T15:17:38.544Z,-0.30
2023-01-08T15:22:49.586Z,-0.27
2023-01-08T15:28:09.113Z,-0.27
2023-01-08T15:33:28.986Z,-0.25
2023-01-08T15:38:35.132Z,-0.36
2023-01-08T15:43:42.232Z,-0.48
2023-01-08T15:48:55.969Z,-0.63
2023-01-08T15:54:02.258Z,-0.75
2023-01-08T15:59:07.310Z,-0.85
2023-01-08T16:04:14.400Z,-0.82
2023-01-08T16:09:19.644Z,-0.88
2023-01-08T16:14:26.064Z,-0.92
2023-01-08T16:19:32.637Z,-0.88
2023-01-08T16:24:40.708Z,-0.82
2023-01-08T16:29:45.833Z,-0.73
2023-01-08T16:34:51.970Z,-0.72
2023-01-08T16:40:00.825Z,-0.68
2023-01-08T16:45:06.397Z,-0.64
2023-01-08T16:50:15.543Z,-0.63
2023-01-08T16:55:20.912Z,-0.61
2023-01-08T17:00:27.587Z,-0.57
2023-01-08T17:05:34.132Z,-0.63
2023-01-08T17:10:41.738Z,-0.62
2023-01-08T17:15:49.054Z,-0.69
2023-01-08T17:20:57.504Z,-0.65
2023-01-08T17:26:05.795Z,-0.60
2023-01-08T17:31:14.314Z,-0.52
2023-01-08T17:36:27.671Z,-0.49
2023-01-08T17:41:51.325Z,-0.46
2023-01-08T17:46:56.495Z,-0.46
2023-01-08T17:52:01.809Z,-0.50
2023-01-08T17:57:08.119Z,-0.52
2023-01-08T18:02:16.087Z,-0.59
2023-01-08T18:07:21.830Z,-0.70
2023-01-08T18:12:28.117Z,-0.75
2023-01-08T18:17:33.979Z,-0.86
2023-01-08T18:22:39.729Z,-0.93
2023-01-08T18:27:45.116Z,-0.94
2023-01-08T18:32:52.170Z,-0.90
2023-01-08T18:37:58.488Z,-0.86
2023-01-08T18:43:05.306Z,-0.84
2023-01-08T18:48:13.598Z,-0.82
2023-01-08T18:53:18.372Z,-0.88
2023-01-08T18:58:24.336Z,-1.03
2023-01-08T19:03:29.877Z,-1.11
2023-01-08T19:08:34.745Z,-1.23
2023-01-08T19:13:40.704Z,-1.37
2023-01-08T19:18:45.782Z,-1.44
2023-01-08T19:23:50.817Z,-1.51
2023-01-08T19:28:55.450Z,-1.53
2023-01-08T19:34:01.122Z,-1.45
2023-01-08T19:39:06.600Z,-1.31
2023-01-08T19:44:11.551Z,-1.19
2023-01-08T19:49:16.174Z,-1.14
2023-01-08T19:54:24.326Z,-1.07
2023-01-08T19:59:28.955Z,-1.05
2023-01-08T20:04:35.371Z,-1.07
2023-01-08T20:09:40.196Z,-1.14
2023-01-08T20:14:44.818Z,-1.19
2023-01-08T20:19:50.214Z,-1.27
2023-01-08T20:24:57.006Z,-1.37
2023-01-08T20:30:02.974Z,-1.42
2023-01-08T20:35:08.038Z,-1.53
2023-01-08T20:40:13.101Z,-1.59
2023-01-08T20:45:17.999Z,-1.55
2023-01-08T20:50:23.510Z,-1.50
2023-01-08T20:55:29.284Z,-1.46
2023-01-08T21:00:33.980Z,-1.43
2023-01-08T21:05:40.587Z,-1.39
2023-01-08T21:10:45.215Z,-1.43
2023-01-08T21:15:50.127Z,-1.44
2023-01-08T21:21:06.217Z,-1.49
2023-01-08T21:26:13.318Z,-1.61
2023-01-08T21:31:23.923Z,-1.75
2023-01-08T21:36:33.876Z,-1.85
2023-01-08T21:41:57.493Z,-1.94
2023-01-08T21:47:03.235Z,-1.95
2023-01-08T21:52:27.128Z,-1.96
2023-01-08T21:57:32.852Z,-1.94
2023-01-08T22:02:38.299Z,-1.98
2023-01-08T22:07:42.953Z,-1.96
2023-01-08T22:12:47.567Z,-1.94
2023-01-08T22:17:52.970Z,-1.98
2023-01-08T22:22:58.315Z,-2.11
2023-01-08T22:28:03.771Z,-2.21
2023-01-08T22:33:08.354Z,-2.33
2023-01-08T22:38:12.912Z,-2.36
2023-01-08T22:43:18.523Z,-2.46
2023-01-08T22:48:23.207Z,-2.56
2023-01-08T22:53:27.989Z,-2.60
2023-01-08T22:58:43.882Z,-2.55
2023-01-08T23:03:57.575Z,-2.53
2023-01-08T23:09:02.935Z,-2.52
2023-01-08T23:14:07.520Z,-2.51
2023-01-08T23:19:12.312Z,-2.48
2023-01-08T23:24:17.022Z,-2.53
2023-01-08T23:29:22.686Z,-2.65
2023-01-08T23:34:27.364Z,-2.76
2023-01-08T23:39:32.672Z,-2.83
2023-01-08T23:44:38.333Z,-2.92
2023-01-08T23:49:42.903Z,-2.99
2023-01-08T23:54:48.299Z,-3.05
2023-01-08T23:59:53.068Z,-3.06
